sensor_id;sensor_type;location;lat;lon;timestamp;P1;durP1;ratioP1;P2;durP2;ratioP2
64832;SDS011;51290;45.060;38.948;2023-10-13T00:00:26;20.67;;;14.43;;
64832;SDS011;51290;45.060;38.948;2023-10-13T00:02:56;19.55;;;14.95;;
64832;SDS011;51290;45.060;38.948;2023-10-13T00:05:29;19.50;;;14.32;;
64832;SDS011;51290;45.060;38.948;2023-10-13T00:08:01;18.42;;;13.60;;
64832;SDS011;51290;45.060;38.948;2023-10-13T00:10:31;22.73;;;13.10;;
64832;SDS011;51290;45.060;38.948;2023-10-13T00:13:00;17.30;;;12.50;;
64832;SDS011;51290;45.060;38.948;2023-10-13T00:15:47;16.30;;;13.10;;
64832;SDS011;51290;45.060;38.948;2023-10-13T00:18:31;17.48;;;12.73;;
64832;SDS011;51290;45.060;38.948;2023-10-13T00:21:07;17.40;;;12.70;;
64832;SDS011;51290;45.060;38.948;2023-10-13T00:24:09;21.08;;;12.20;;
64832;SDS011;51290;45.060;38.948;2023-10-13T00:26:39;23.63;;;14.52;;
64832;SDS011;51290;45.060;38.948;2023-10-13T00:29:08;19.75;;;14.60;;
64832;SDS011;51290;45.060;38.948;2023-10-13T00:31:37;19.80;;;14.75;;
64832;SDS011;51290;45.060;38.948;2023-10-13T00:34:10;25.55;;;14.65;;
64832;SDS011;51290;45.060;38.948;2023-10-13T00:36:45;21.17;;;14.50;;
64832;SDS011;51290;45.060;38.948;2023-10-13T00:39:34;20.25;;;13.13;;
64832;SDS011;51290;45.060;38.948;2023-10-13T00:42:11;25.35;;;14.70;;
64832;SDS011;51290;45.060;38.948;2023-10-13T00:44:45;24.90;;;14.07;;
64832;SDS011;51290;45.060;38.948;2023-10-13T00:47:18;19.10;;;13.93;;
64832;SDS011;51290;45.060;38.948;2023-10-13T00:50:02;18.73;;;14.07;;
64832;SDS011;51290;45.060;38.948;2023-10-13T00:52:30;18.42;;;13.27;;
64832;SDS011;51290;45.060;38.948;2023-10-13T00:54:58;18.38;;;14.07;;
64832;SDS011;51290;45.060;38.948;2023-10-13T00:57:25;21.38;;;13.88;;
64832;SDS011;51290;45.060;38.948;2023-10-13T00:59:52;18.35;;;12.32;;
64832;SDS011;51290;45.060;38.948;2023-10-13T01:02:21;18.80;;;12.25;;
64832;SDS011;51290;45.060;38.948;2023-10-13T01:05:06;14.63;;;11.55;;
64832;SDS011;51290;45.060;38.948;2023-10-13T01:07:37;15.45;;;11.32;;
64832;SDS011;51290;45.060;38.948;2023-10-13T01:10:09;13.70;;;10.27;;
64832;SDS011;51290;45.060;38.948;2023-10-13T01:12:40;15.18;;;9.35;;
64832;SDS011;51290;45.060;38.948;2023-10-13T01:15:09;22.58;;;9.18;;
64832;SDS011;51290;45.060;38.948;2023-10-13T01:17:36;11.38;;;8.15;;
64832;SDS011;51290;45.060;38.948;2023-10-13T01:20:03;12.50;;;8.95;;
64832;SDS011;51290;45.060;38.948;2023-10-13T01:22:31;11.70;;;8.05;;
64832;SDS011;51290;45.060;38.948;2023-10-13T01:24:58;15.15;;;9.63;;
64832;SDS011;51290;45.060;38.948;2023-10-13T01:27:35;10.13;;;7.40;;
64832;SDS011;51290;45.060;38.948;2023-10-13T01:30:03;10.35;;;7.60;;
64832;SDS011;51290;45.060;38.948;2023-10-13T01:32:48;10.50;;;7.63;;
64832;SDS011;51290;45.060;38.948;2023-10-13T01:35:17;9.93;;;7.18;;
64832;SDS011;51290;45.060;38.948;2023-10-13T01:38:02;13.73;;;7.47;;
64832;SDS011;51290;45.060;38.948;2023-10-13T01:40:28;12.48;;;7.30;;
64832;SDS011;51290;45.060;38.948;2023-10-13T01:42:59;15.73;;;8.45;;
64832;SDS011;51290;45.060;38.948;2023-10-13T01:45:25;10.32;;;6.85;;
64832;SDS011;51290;45.060;38.948;2023-10-13T01:47:57;8.88;;;6.68;;
64832;SDS011;51290;45.060;38.948;2023-10-13T01:50:23;11.45;;;7.63;;
64832;SDS011;51290;45.060;38.948;2023-10-13T01:52:58;10.10;;;6.90;;
64832;SDS011;51290;45.060;38.948;2023-10-13T01:55:42;12.52;;;7.85;;
64832;SDS011;51290;45.060;38.948;2023-10-13T01:58:15;20.13;;;8.32;;
64832;SDS011;51290;45.060;38.948;2023-10-13T02:00:42;11.75;;;7.88;;
64832;SDS011;51290;45.060;38.948;2023-10-13T02:03:10;12.70;;;7.93;;
64832;SDS011;51290;45.060;38.948;2023-10-13T02:05:41;10.98;;;7.63;;
64832;SDS011;51290;45.060;38.948;2023-10-13T02:08:15;11.27;;;7.63;;
64832;SDS011;51290;45.060;38.948;2023-10-13T02:10:49;9.63;;;6.90;;
64832;SDS011;51290;45.060;38.948;2023-10-13T02:13:19;11.85;;;8.32;;
64832;SDS011;51290;45.060;38.948;2023-10-13T02:15:48;13.75;;;8.95;;
64832;SDS011;51290;45.060;38.948;2023-10-13T02:18:17;12.43;;;8.68;;
64832;SDS011;51290;45.060;38.948;2023-10-13T02:20:53;13.77;;;8.40;;
64832;SDS011;51290;45.060;38.948;2023-10-13T02:23:21;10.55;;;8.10;;
64832;SDS011;51290;45.060;38.948;2023-10-13T02:25:48;12.25;;;7.85;;
64832;SDS011;51290;45.060;38.948;2023-10-13T02:28:17;11.32;;;8.20;;
64832;SDS011;51290;45.060;38.948;2023-10-13T02:30:47;12.73;;;8.35;;
64832;SDS011;51290;45.060;38.948;2023-10-13T02:33:18;11.20;;;7.72;;
64832;SDS011;51290;45.060;38.948;2023-10-13T02:35:47;11.15;;;7.65;;
64832;SDS011;51290;45.060;38.948;2023-10-13T02:38:20;13.95;;;9.25;;
64832;SDS011;51290;45.060;38.948;2023-10-13T02:40:59;15.48;;;8.27;;
64832;SDS011;51290;45.060;38.948;2023-10-13T02:43:34;16.50;;;8.43;;
64832;SDS011;51290;45.060;38.948;2023-10-13T02:46:01;13.38;;;8.13;;
64832;SDS011;51290;45.060;38.948;2023-10-13T02:48:28;13.80;;;8.18;;
64832;SDS011;51290;45.060;38.948;2023-10-13T02:51:11;13.55;;;8.00;;
64832;SDS011;51290;45.060;38.948;2023-10-13T02:53:47;14.45;;;8.07;;
64832;SDS011;51290;45.060;38.948;2023-10-13T02:56:14;12.85;;;8.45;;
64832;SDS011;51290;45.060;38.948;2023-10-13T02:58:49;15.60;;;8.30;;
64832;SDS011;51290;45.060;38.948;2023-10-13T03:03:54;11.82;;;7.75;;
64832;SDS011;51290;45.060;38.948;2023-10-13T03:06:21;22.98;;;8.52;;
64832;SDS011;51290;45.060;38.948;2023-10-13T03:08:59;14.00;;;7.85;;
64832;SDS011;51290;45.060;38.948;2023-10-13T03:11:39;14.90;;;8.88;;
64832;SDS011;51290;45.060;38.948;2023-10-13T03:14:08;15.32;;;9.07;;
64832;SDS011;51290;45.060;38.948;2023-10-13T03:16:50;15.30;;;9.40;;
64832;SDS011;51290;45.060;38.948;2023-10-13T03:19:20;13.50;;;8.48;;
64832;SDS011;51290;45.060;38.948;2023-10-13T03:21:47;11.25;;;8.38;;
64832;SDS011;51290;45.060;38.948;2023-10-13T03:24:31;13.05;;;8.25;;
64832;SDS011;51290;45.060;38.948;2023-10-13T03:27:00;14.80;;;8.57;;
64832;SDS011;51290;45.060;38.948;2023-10-13T03:29:48;14.80;;;9.02;;
64832;SDS011;51290;45.060;38.948;2023-10-13T03:32:22;14.25;;;8.77;;
64832;SDS011;51290;45.060;38.948;2023-10-13T03:34:51;15.38;;;9.02;;
64832;SDS011;51290;45.060;38.948;2023-10-13T03:37:17;14.70;;;9.45;;
64832;SDS011;51290;45.060;38.948;2023-10-13T03:40:03;14.35;;;8.75;;
64832;SDS011;51290;45.060;38.948;2023-10-13T03:42:54;11.88;;;9.75;;
64832;SDS011;51290;45.060;38.948;2023-10-13T03:45:38;16.20;;;10.30;;
64832;SDS011;51290;45.060;38.948;2023-10-13T03:48:11;15.57;;;9.55;;
64832;SDS011;51290;45.060;38.948;2023-10-13T03:50:50;17.27;;;10.02;;
64832;SDS011;51290;45.060;38.948;2023-10-13T03:53:32;15.65;;;9.73;;
64832;SDS011;51290;45.060;38.948;2023-10-13T03:55:59;14.98;;;8.40;;
64832;SDS011;51290;45.060;38.948;2023-10-13T03:58:40;16.17;;;10.00;;
64832;SDS011;51290;45.060;38.948;2023-10-13T04:01:19;13.30;;;9.55;;
64832;SDS011;51290;45.060;38.948;2023-10-13T04:03:50;14.48;;;10.32;;
64832;SDS011;51290;45.060;38.948;2023-10-13T04:06:23;17.83;;;10.13;;
64832;SDS011;51290;45.060;38.948;2023-10-13T04:09:09;17.88;;;10.02;;
64832;SDS011;51290;45.060;38.948;2023-10-13T04:12:03;17.05;;;10.10;;
64832;SDS011;51290;45.060;38.948;2023-10-13T04:14:39;17.92;;;10.38;;
64832;SDS011;51290;45.060;38.948;2023-10-13T04:17:09;15.75;;;10.27;;
64832;SDS011;51290;45.060;38.948;2023-10-13T04:19:40;23.58;;;11.73;;
64832;SDS011;51290;45.060;38.948;2023-10-13T04:25:15;19.88;;;11.82;;
64832;SDS011;51290;45.060;38.948;2023-10-13T04:28:07;18.88;;;12.25;;
64832;SDS011;51290;45.060;38.948;2023-10-13T04:30:50;21.00;;;13.48;;
64832;SDS011;51290;45.060;38.948;2023-10-13T04:33:23;18.15;;;12.90;;
64832;SDS011;51290;45.060;38.948;2023-10-13T04:36:12;16.83;;;13.13;;
64832;SDS011;51290;45.060;38.948;2023-10-13T04:38:59;22.25;;;12.15;;
64832;SDS011;51290;45.060;38.948;2023-10-13T04:41:26;20.10;;;12.35;;
64832;SDS011;51290;45.060;38.948;2023-10-13T04:46:57;17.58;;;12.98;;
64832;SDS011;51290;45.060;38.948;2023-10-13T04:49:31;16.02;;;13.10;;
64832;SDS011;51290;45.060;38.948;2023-10-13T04:52:15;19.65;;;13.15;;
64832;SDS011;51290;45.060;38.948;2023-10-13T04:55:01;20.25;;;12.40;;
64832;SDS011;51290;45.060;38.948;2023-10-13T04:57:45;15.23;;;10.98;;
64832;SDS011;51290;45.060;38.948;2023-10-13T05:00:18;20.42;;;11.70;;
64832;SDS011;51290;45.060;38.948;2023-10-13T05:02:45;15.95;;;11.00;;
64832;SDS011;51290;45.060;38.948;2023-10-13T05:05:37;19.95;;;10.40;;
64832;SDS011;51290;45.060;38.948;2023-10-13T05:08:18;17.20;;;10.52;;
64832;SDS011;51290;45.060;38.948;2023-10-13T05:11:04;15.95;;;9.98;;
64832;SDS011;51290;45.060;38.948;2023-10-13T05:13:49;13.77;;;8.95;;
64832;SDS011;51290;45.060;38.948;2023-10-13T05:16:33;17.17;;;10.00;;
64832;SDS011;51290;45.060;38.948;2023-10-13T05:19:18;13.45;;;8.77;;
64832;SDS011;51290;45.060;38.948;2023-10-13T05:22:02;13.23;;;8.75;;
64832;SDS011;51290;45.060;38.948;2023-10-13T05:24:46;15.95;;;9.10;;
64832;SDS011;51290;45.060;38.948;2023-10-13T05:27:30;15.82;;;9.25;;
64832;SDS011;51290;45.060;38.948;2023-10-13T05:30:15;11.65;;;8.77;;
64832;SDS011;51290;45.060;38.948;2023-10-13T05:32:59;14.20;;;8.80;;
64832;SDS011;51290;45.060;38.948;2023-10-13T05:35:43;11.82;;;8.18;;
64832;SDS011;51290;45.060;38.948;2023-10-13T05:38:28;13.32;;;7.78;;
64832;SDS011;51290;45.060;38.948;2023-10-13T05:41:12;13.05;;;9.38;;
64832;SDS011;51290;45.060;38.948;2023-10-13T05:43:57;9.45;;;7.68;;
64832;SDS011;51290;45.060;38.948;2023-10-13T05:46:41;10.27;;;7.40;;
64832;SDS011;51290;45.060;38.948;2023-10-13T05:49:25;13.55;;;8.65;;
64832;SDS011;51290;45.060;38.948;2023-10-13T05:52:10;13.82;;;8.52;;
64832;SDS011;51290;45.060;38.948;2023-10-13T05:54:47;12.60;;;7.90;;
64832;SDS011;51290;45.060;38.948;2023-10-13T05:57:32;13.55;;;8.20;;
64832;SDS011;51290;45.060;38.948;2023-10-13T06:00:16;16.95;;;8.95;;
64832;SDS011;51290;45.060;38.948;2023-10-13T06:03:01;17.63;;;9.13;;
64832;SDS011;51290;45.060;38.948;2023-10-13T06:05:45;15.27;;;9.50;;
64832;SDS011;51290;45.060;38.948;2023-10-13T06:08:49;15.10;;;9.73;;
64832;SDS011;51290;45.060;38.948;2023-10-13T06:11:33;17.00;;;10.23;;
64832;SDS011;51290;45.060;38.948;2023-10-13T06:14:18;12.95;;;10.18;;
64832;SDS011;51290;45.060;38.948;2023-10-13T06:17:02;13.52;;;9.13;;
64832;SDS011;51290;45.060;38.948;2023-10-13T06:19:46;18.02;;;10.68;;
64832;SDS011;51290;45.060;38.948;2023-10-13T06:22:31;13.57;;;10.27;;
64832;SDS011;51290;45.060;38.948;2023-10-13T06:25:15;17.30;;;11.27;;
64832;SDS011;51290;45.060;38.948;2023-10-13T06:28:00;25.80;;;11.68;;
64832;SDS011;51290;45.060;38.948;2023-10-13T06:30:53;19.42;;;11.73;;
64832;SDS011;51290;45.060;38.948;2023-10-13T06:33:21;23.48;;;10.65;;
64832;SDS011;51290;45.060;38.948;2023-10-13T06:35:55;20.70;;;12.25;;
64832;SDS011;51290;45.060;38.948;2023-10-13T06:38:22;16.45;;;10.43;;
64832;SDS011;51290;45.060;38.948;2023-10-13T06:40:48;16.30;;;11.07;;
64832;SDS011;51290;45.060;38.948;2023-10-13T06:43:16;21.48;;;11.50;;
64832;SDS011;51290;45.060;38.948;2023-10-13T06:45:43;25.52;;;11.65;;
64832;SDS011;51290;45.060;38.948;2023-10-13T06:48:16;18.30;;;11.80;;
64832;SDS011;51290;45.060;38.948;2023-10-13T06:50:49;19.98;;;11.95;;
64832;SDS011;51290;45.060;38.948;2023-10-13T06:53:20;18.95;;;12.07;;
64832;SDS011;51290;45.060;38.948;2023-10-13T06:55:46;22.90;;;10.27;;
64832;SDS011;51290;45.060;38.948;2023-10-13T06:58:13;16.75;;;9.23;;
64832;SDS011;51290;45.060;38.948;2023-10-13T07:00:40;17.85;;;9.90;;
64832;SDS011;51290;45.060;38.948;2023-10-13T07:03:06;15.07;;;9.20;;
64832;SDS011;51290;45.060;38.948;2023-10-13T07:05:37;13.57;;;7.85;;
64832;SDS011;51290;45.060;38.948;2023-10-13T07:08:07;14.68;;;7.10;;
64832;SDS011;51290;45.060;38.948;2023-10-13T07:10:34;14.35;;;5.60;;
64832;SDS011;51290;45.060;38.948;2023-10-13T07:13:14;8.52;;;4.53;;
64832;SDS011;51290;45.060;38.948;2023-10-13T07:15:42;7.95;;;4.38;;
64832;SDS011;51290;45.060;38.948;2023-10-13T07:18:11;8.45;;;4.53;;
64832;SDS011;51290;45.060;38.948;2023-10-13T07:20:41;6.68;;;4.20;;
64832;SDS011;51290;45.060;38.948;2023-10-13T07:23:11;8.93;;;4.65;;
64832;SDS011;51290;45.060;38.948;2023-10-13T07:25:52;6.13;;;3.80;;
64832;SDS011;51290;45.060;38.948;2023-10-13T07:28:38;10.52;;;4.18;;
64832;SDS011;51290;45.060;38.948;2023-10-13T07:31:13;6.07;;;3.83;;
64832;SDS011;51290;45.060;38.948;2023-10-13T07:33:44;9.60;;;3.92;;
64832;SDS011;51290;45.060;38.948;2023-10-13T07:36:10;9.82;;;4.72;;
64832;SDS011;51290;45.060;38.948;2023-10-13T07:38:39;8.25;;;4.18;;
64832;SDS011;51290;45.060;38.948;2023-10-13T07:41:07;8.35;;;3.92;;
64832;SDS011;51290;45.060;38.948;2023-10-13T07:43:34;13.07;;;4.30;;
64832;SDS011;51290;45.060;38.948;2023-10-13T07:46:02;7.47;;;3.83;;
64832;SDS011;51290;45.060;38.948;2023-10-13T07:48:40;6.30;;;3.78;;
64832;SDS011;51290;45.060;38.948;2023-10-13T07:51:10;8.50;;;4.45;;
64832;SDS011;51290;45.060;38.948;2023-10-13T07:53:39;6.32;;;3.92;;
64832;SDS011;51290;45.060;38.948;2023-10-13T07:56:06;11.80;;;3.70;;
64832;SDS011;51290;45.060;38.948;2023-10-13T07:58:34;7.35;;;3.95;;
64832;SDS011;51290;45.060;38.948;2023-10-13T08:01:21;8.15;;;3.65;;
64832;SDS011;51290;45.060;38.948;2023-10-13T08:03:47;10.90;;;4.00;;
64832;SDS011;51290;45.060;38.948;2023-10-13T08:06:22;6.50;;;3.75;;
64832;SDS011;51290;45.060;38.948;2023-10-13T08:08:53;6.40;;;3.58;;
64832;SDS011;51290;45.060;38.948;2023-10-13T08:11:24;6.47;;;3.63;;
64832;SDS011;51290;45.060;38.948;2023-10-13T08:13:59;6.40;;;3.55;;
64832;SDS011;51290;45.060;38.948;2023-10-13T08:16:41;5.10;;;3.47;;
64832;SDS011;51290;45.060;38.948;2023-10-13T08:19:14;7.82;;;4.13;;
64832;SDS011;51290;45.060;38.948;2023-10-13T08:21:44;6.10;;;4.05;;
64832;SDS011;51290;45.060;38.948;2023-10-13T08:24:24;7.72;;;4.15;;
64832;SDS011;51290;45.060;38.948;2023-10-13T08:27:18;8.15;;;4.07;;
64832;SDS011;51290;45.060;38.948;2023-10-13T08:30:00;10.50;;;4.03;;
64832;SDS011;51290;45.060;38.948;2023-10-13T08:32:28;5.80;;;3.30;;
64832;SDS011;51290;45.060;38.948;2023-10-13T08:35:00;8.20;;;3.78;;
64832;SDS011;51290;45.060;38.948;2023-10-13T08:37:33;6.90;;;3.80;;
64832;SDS011;51290;45.060;38.948;2023-10-13T08:40:18;9.68;;;4.43;;
64832;SDS011;51290;45.060;38.948;2023-10-13T08:43:06;7.03;;;4.20;;
64832;SDS011;51290;45.060;38.948;2023-10-13T08:45:40;9.07;;;3.83;;
64832;SDS011;51290;45.060;38.948;2023-10-13T08:48:12;10.50;;;4.57;;
64832;SDS011;51290;45.060;38.948;2023-10-13T08:50:42;6.55;;;3.70;;
64832;SDS011;51290;45.060;38.948;2023-10-13T08:53:22;7.97;;;4.35;;
64832;SDS011;51290;45.060;38.948;2023-10-13T08:56:02;7.13;;;3.80;;
64832;SDS011;51290;45.060;38.948;2023-10-13T08:59:04;6.57;;;4.03;;
64832;SDS011;51290;45.060;38.948;2023-10-13T09:01:37;8.43;;;4.20;;
64832;SDS011;51290;45.060;38.948;2023-10-13T09:04:25;5.80;;;3.47;;
64832;SDS011;51290;45.060;38.948;2023-10-13T09:07:00;6.20;;;3.63;;
64832;SDS011;51290;45.060;38.948;2023-10-13T09:09:44;8.50;;;3.38;;
64832;SDS011;51290;45.060;38.948;2023-10-13T09:12:17;4.32;;;3.22;;
64832;SDS011;51290;45.060;38.948;2023-10-13T09:14:51;6.10;;;3.65;;
64832;SDS011;51290;45.060;38.948;2023-10-13T09:17:32;5.97;;;3.10;;
64832;SDS011;51290;45.060;38.948;2023-10-13T09:20:07;9.85;;;3.80;;
64832;SDS011;51290;45.060;38.948;2023-10-13T09:22:55;8.10;;;3.50;;
64832;SDS011;51290;45.060;38.948;2023-10-13T09:25:28;10.82;;;3.72;;
64832;SDS011;51290;45.060;38.948;2023-10-13T09:28:01;5.35;;;3.33;;
64832;SDS011;51290;45.060;38.948;2023-10-13T09:30:51;5.35;;;3.55;;
64832;SDS011;51290;45.060;38.948;2023-10-13T09:33:22;8.82;;;4.47;;
64832;SDS011;51290;45.060;38.948;2023-10-13T09:36:07;5.43;;;3.60;;
64832;SDS011;51290;45.060;38.948;2023-10-13T09:38:34;6.35;;;3.75;;
64832;SDS011;51290;45.060;38.948;2023-10-13T09:41:06;7.28;;;3.80;;
64832;SDS011;51290;45.060;38.948;2023-10-13T09:43:51;6.80;;;4.13;;
64832;SDS011;51290;45.060;38.948;2023-10-13T09:46:21;7.75;;;3.85;;
64832;SDS011;51290;45.060;38.948;2023-10-13T09:48:54;8.93;;;5.07;;
64832;SDS011;51290;45.060;38.948;2023-10-13T09:51:34;8.75;;;5.00;;
64832;SDS011;51290;45.060;38.948;2023-10-13T09:54:07;9.00;;;5.43;;
64832;SDS011;51290;45.060;38.948;2023-10-13T09:56:51;10.80;;;5.85;;
64832;SDS011;51290;45.060;38.948;2023-10-13T09:59:29;15.82;;;7.28;;
64832;SDS011;51290;45.060;38.948;2023-10-13T10:02:01;9.80;;;6.97;;
64832;SDS011;51290;45.060;38.948;2023-10-13T10:04:34;9.45;;;6.03;;
64832;SDS011;51290;45.060;38.948;2023-10-13T10:07:02;10.82;;;7.07;;
64832;SDS011;51290;45.060;38.948;2023-10-13T10:09:29;10.45;;;6.45;;
64832;SDS011;51290;45.060;38.948;2023-10-13T10:17:21;9.27;;;6.18;;
64832;SDS011;51290;45.060;38.948;2023-10-13T10:19:52;13.90;;;6.32;;
64832;SDS011;51290;45.060;38.948;2023-10-13T10:22:25;10.45;;;6.65;;
64832;SDS011;51290;45.060;38.948;2023-10-13T10:25:09;9.52;;;5.43;;
64832;SDS011;51290;45.060;38.948;2023-10-13T10:27:54;9.82;;;5.22;;
64832;SDS011;51290;45.060;38.948;2023-10-13T10:30:28;7.32;;;4.75;;
64832;SDS011;51290;45.060;38.948;2023-10-13T10:32:58;11.38;;;5.95;;
64832;SDS011;51290;45.060;38.948;2023-10-13T10:35:24;9.48;;;5.07;;
64832;SDS011;51290;45.060;38.948;2023-10-13T10:38:10;9.52;;;5.20;;
64832;SDS011;51290;45.060;38.948;2023-10-13T10:43:25;9.43;;;5.40;;
64832;SDS011;51290;45.060;38.948;2023-10-13T10:45:52;17.88;;;5.05;;
64832;SDS011;51290;45.060;38.948;2023-10-13T10:48:25;10.02;;;4.57;;
64832;SDS011;51290;45.060;38.948;2023-10-13T10:50:57;7.90;;;4.90;;
64832;SDS011;51290;45.060;38.948;2023-10-13T10:53:24;8.85;;;3.92;;
64832;SDS011;51290;45.060;38.948;2023-10-13T10:56:04;7.13;;;4.50;;
64832;SDS011;51290;45.060;38.948;2023-10-13T10:58:34;5.70;;;3.80;;
64832;SDS011;51290;45.060;38.948;2023-10-13T11:01:09;8.25;;;4.57;;
64832;SDS011;51290;45.060;38.948;2023-10-13T11:03:36;8.40;;;4.00;;
64832;SDS011;51290;45.060;38.948;2023-10-13T11:06:11;4.65;;;3.25;;
64832;SDS011;51290;45.060;38.948;2023-10-13T11:08:42;7.10;;;3.58;;
64832;SDS011;51290;45.060;38.948;2023-10-13T11:11:15;10.55;;;3.80;;
64832;SDS011;51290;45.060;38.948;2023-10-13T11:13:46;8.85;;;3.95;;
64832;SDS011;51290;45.060;38.948;2023-10-13T11:16:20;5.65;;;3.50;;
64832;SDS011;51290;45.060;38.948;2023-10-13T11:19:02;7.00;;;4.05;;
64832;SDS011;51290;45.060;38.948;2023-10-13T11:21:30;5.85;;;3.85;;
64832;SDS011;51290;45.060;38.948;2023-10-13T11:23:57;5.97;;;3.97;;
64832;SDS011;51290;45.060;38.948;2023-10-13T11:26:34;5.90;;;3.78;;
64832;SDS011;51290;45.060;38.948;2023-10-13T11:29:13;6.50;;;3.83;;
64832;SDS011;51290;45.060;38.948;2023-10-13T11:31:39;11.50;;;4.95;;
64832;SDS011;51290;45.060;38.948;2023-10-13T11:34:09;10.85;;;4.93;;
64832;SDS011;51290;45.060;38.948;2023-10-13T11:36:36;7.47;;;4.22;;
64832;SDS011;51290;45.060;38.948;2023-10-13T11:39:02;16.17;;;4.65;;
64832;SDS011;51290;45.060;38.948;2023-10-13T11:41:32;11.60;;;5.22;;
64832;SDS011;51290;45.060;38.948;2023-10-13T11:44:10;9.30;;;4.90;;
64832;SDS011;51290;45.060;38.948;2023-10-13T11:46:49;12.70;;;6.40;;
64832;SDS011;51290;45.060;38.948;2023-10-13T11:49:21;13.32;;;8.10;;
64832;SDS011;51290;45.060;38.948;2023-10-13T11:51:54;16.40;;;8.63;;
64832;SDS011;51290;45.060;38.948;2023-10-13T11:54:27;14.75;;;9.23;;
64832;SDS011;51290;45.060;38.948;2023-10-13T11:56:53;16.08;;;9.65;;
64832;SDS011;51290;45.060;38.948;2023-10-13T11:59:24;13.50;;;10.13;;
64832;SDS011;51290;45.060;38.948;2023-10-13T12:01:52;13.82;;;10.13;;
64832;SDS011;51290;45.060;38.948;2023-10-13T12:04:37;16.23;;;11.40;;
64832;SDS011;51290;45.060;38.948;2023-10-13T12:07:07;13.13;;;9.77;;
64832;SDS011;51290;45.060;38.948;2023-10-13T12:09:46;15.30;;;10.95;;
64832;SDS011;51290;45.060;38.948;2023-10-13T12:12:23;14.32;;;10.27;;
64832;SDS011;51290;45.060;38.948;2023-10-13T12:14:49;17.65;;;11.95;;
64832;SDS011;51290;45.060;38.948;2023-10-13T12:17:20;15.45;;;11.55;;
64832;SDS011;51290;45.060;38.948;2023-10-13T12:20:07;20.65;;;12.45;;
64832;SDS011;51290;45.060;38.948;2023-10-13T12:22:37;16.70;;;11.20;;
64832;SDS011;51290;45.060;38.948;2023-10-13T12:25:23;13.43;;;10.40;;
64832;SDS011;51290;45.060;38.948;2023-10-13T12:27:58;12.20;;;9.73;;
64832;SDS011;51290;45.060;38.948;2023-10-13T12:30:40;14.80;;;10.77;;
64832;SDS011;51290;45.060;38.948;2023-10-13T12:33:21;19.20;;;11.57;;
64832;SDS011;51290;45.060;38.948;2023-10-13T12:38:32;19.95;;;12.93;;
64832;SDS011;51290;45.060;38.948;2023-10-13T12:41:07;15.85;;;11.82;;
64832;SDS011;51290;45.060;38.948;2023-10-13T12:43:51;15.27;;;11.25;;
64832;SDS011;51290;45.060;38.948;2023-10-13T12:46:35;14.75;;;11.00;;
64832;SDS011;51290;45.060;38.948;2023-10-13T12:49:20;15.02;;;9.27;;
64832;SDS011;51290;45.060;38.948;2023-10-13T12:52:14;14.00;;;8.55;;
64832;SDS011;51290;45.060;38.948;2023-10-13T12:54:42;12.02;;;7.53;;
64832;SDS011;51290;45.060;38.948;2023-10-13T12:57:15;14.35;;;6.90;;
64832;SDS011;51290;45.060;38.948;2023-10-13T12:59:41;10.93;;;6.63;;
64832;SDS011;51290;45.060;38.948;2023-10-13T13:02:08;10.85;;;5.80;;
64832;SDS011;51290;45.060;38.948;2023-10-13T13:04:42;10.73;;;6.60;;
64832;SDS011;51290;45.060;38.948;2023-10-13T13:07:13;10.90;;;5.88;;
64832;SDS011;51290;45.060;38.948;2023-10-13T13:09:42;9.93;;;5.20;;
64832;SDS011;51290;45.060;38.948;2023-10-13T13:12:08;9.40;;;5.75;;
64832;SDS011;51290;45.060;38.948;2023-10-13T13:14:38;13.30;;;5.18;;
64832;SDS011;51290;45.060;38.948;2023-10-13T13:17:06;9.60;;;4.75;;
64832;SDS011;51290;45.060;38.948;2023-10-13T13:19:33;8.93;;;4.40;;
64832;SDS011;51290;45.060;38.948;2023-10-13T13:22:06;10.00;;;5.05;;
64832;SDS011;51290;45.060;38.948;2023-10-13T13:24:39;20.17;;;5.50;;
64832;SDS011;51290;45.060;38.948;2023-10-13T13:27:15;10.93;;;5.40;;
64832;SDS011;51290;45.060;38.948;2023-10-13T13:29:47;9.43;;;4.97;;
64832;SDS011;51290;45.060;38.948;2023-10-13T13:32:13;9.00;;;5.03;;
64832;SDS011;51290;45.060;38.948;2023-10-13T13:35:05;8.07;;;5.10;;
64832;SDS011;51290;45.060;38.948;2023-10-13T13:37:33;8.48;;;5.63;;
64832;SDS011;51290;45.060;38.948;2023-10-13T13:40:05;7.65;;;5.10;;
64832;SDS011;51290;45.060;38.948;2023-10-13T13:42:47;13.97;;;5.53;;
64832;SDS011;51290;45.060;38.948;2023-10-13T13:45:17;13.73;;;5.55;;
64832;SDS011;51290;45.060;38.948;2023-10-13T13:47:52;10.05;;;4.95;;
64832;SDS011;51290;45.060;38.948;2023-10-13T13:50:22;13.70;;;5.55;;
64832;SDS011;51290;45.060;38.948;2023-10-13T13:52:57;15.13;;;5.72;;
64832;SDS011;51290;45.060;38.948;2023-10-13T13:55:24;10.55;;;4.93;;
64832;SDS011;51290;45.060;38.948;2023-10-13T13:57:57;12.25;;;4.80;;
64832;SDS011;51290;45.060;38.948;2023-10-13T14:00:24;11.13;;;4.68;;
64832;SDS011;51290;45.060;38.948;2023-10-13T14:03:16;16.70;;;4.70;;
64832;SDS011;51290;45.060;38.948;2023-10-13T14:05:57;20.38;;;4.95;;
64832;SDS011;51290;45.060;38.948;2023-10-13T14:08:24;10.80;;;4.85;;
64832;SDS011;51290;45.060;38.948;2023-10-13T14:10:51;15.65;;;6.18;;
64832;SDS011;51290;45.060;38.948;2023-10-13T14:13:35;15.68;;;7.97;;
64832;SDS011;51290;45.060;38.948;2023-10-13T14:16:21;18.90;;;8.30;;
64832;SDS011;51290;45.060;38.948;2023-10-13T14:18:49;15.85;;;7.60;;
64832;SDS011;51290;45.060;38.948;2023-10-13T14:21:16;13.50;;;7.65;;
64832;SDS011;51290;45.060;38.948;2023-10-13T14:23:47;17.90;;;9.48;;
64832;SDS011;51290;45.060;38.948;2023-10-13T14:26:15;11.90;;;8.23;;
64832;SDS011;51290;45.060;38.948;2023-10-13T14:28:51;14.88;;;9.20;;
64832;SDS011;51290;45.060;38.948;2023-10-13T14:31:29;17.88;;;9.57;;
64832;SDS011;51290;45.060;38.948;2023-10-13T14:33:56;16.38;;;10.57;;
64832;SDS011;51290;45.060;38.948;2023-10-13T14:36:23;21.02;;;12.48;;
64832;SDS011;51290;45.060;38.948;2023-10-13T14:38:54;27.58;;;14.30;;
64832;SDS011;51290;45.060;38.948;2023-10-13T14:41:20;24.88;;;15.30;;
64832;SDS011;51290;45.060;38.948;2023-10-13T14:43:47;22.60;;;15.13;;
64832;SDS011;51290;45.060;38.948;2023-10-13T14:48:42;23.75;;;14.50;;
64832;SDS011;51290;45.060;38.948;2023-10-13T14:51:12;23.98;;;15.82;;
64832;SDS011;51290;45.060;38.948;2023-10-13T14:53:42;22.13;;;15.90;;
64832;SDS011;51290;45.060;38.948;2023-10-13T14:56:23;21.08;;;15.73;;
64832;SDS011;51290;45.060;38.948;2023-10-13T14:58:51;21.88;;;15.65;;
64832;SDS011;51290;45.060;38.948;2023-10-13T15:01:18;22.60;;;15.30;;
64832;SDS011;51290;45.060;38.948;2023-10-13T15:03:50;31.83;;;16.00;;
64832;SDS011;51290;45.060;38.948;2023-10-13T15:06:27;29.63;;;14.65;;
64832;SDS011;51290;45.060;38.948;2023-10-13T15:08:57;25.20;;;15.32;;
64832;SDS011;51290;45.060;38.948;2023-10-13T15:11:24;21.65;;;14.55;;
64832;SDS011;51290;45.060;38.948;2023-10-13T15:14:01;23.73;;;14.95;;
64832;SDS011;51290;45.060;38.948;2023-10-13T15:16:29;33.00;;;15.10;;
64832;SDS011;51290;45.060;38.948;2023-10-13T15:18:55;28.67;;;15.05;;
64832;SDS011;51290;45.060;38.948;2023-10-13T15:21:21;20.08;;;14.30;;
64832;SDS011;51290;45.060;38.948;2023-10-13T15:23:54;23.85;;;15.57;;
64832;SDS011;51290;45.060;38.948;2023-10-13T15:26:32;34.50;;;14.75;;